Lewiston Nez Perce County Airport Lewiston US
ICAO: KLWS
IATA: LWS
Category: Medium
Scheduled Services: Yes

Elevation: 1442 ft
TransAlt. 18000 ft.

Airport Communications:
ASOS:135.575
SEATTLE CNTR:123.95
CTAF:119.4
GND:121.9
BOISE RDO:122.35
TWR:119.4
UNICOM:122.95

KLWS Zoom In..

Runways:

(A) RW 08 length 6512 ft width 150 ft
---- / hdg 83

(B) RW 12 length 5000 ft width 100 ft
---- / hdg 116

(C) RW 26 length 6512 ft width 150 ft
ILS 109.70 / hdg 263

(D) RW 30 length 5000 ft width 100 ft
---- / hdg 296

Location; KLWS
Day. 23 / Time. 06.56 Zulu
* Altimeter: 30.12
* Temperature: 21° c. 69.8°f.
* Wind from: 190° Speed 03 kn.
Dewpoint: 03° c.
Visibility: 10 Statute Miles.
Clouds: Clear (automated report).

KLWS 230656Z AUTO 19003KT 10SM CLR 21/03 A3012 RMK AO2 SLP191 T02110033


Wind From 190°
Speed 03 kn.

 
 
jpsmedia.com for Web Design worldairports.se 2018   terms of use